sensor_id;sensor_type;location;lat;lon;timestamp;pressure;altitude;pressure_sealevel;temperature;humidity
67738;BME280;54534;43.612;1.572;2023-03-24T00:01:53;98538.50;;;18.32;50.37
67738;BME280;54534;43.612;1.572;2023-03-24T00:04:19;98551.81;;;18.32;50.35
67738;BME280;54534;43.612;1.572;2023-03-24T00:06:45;98558.94;;;18.32;50.64
67738;BME280;54534;43.612;1.572;2023-03-24T00:09:13;98567.78;;;18.32;50.59
67738;BME280;54534;43.612;1.572;2023-03-24T00:11:39;98562.44;;;18.32;50.34
67738;BME280;54534;43.612;1.572;2023-03-24T00:14:05;98566.94;;;18.32;50.25
67738;BME280;54534;43.612;1.572;2023-03-24T00:16:30;98558.09;;;18.31;50.21
67738;BME280;54534;43.612;1.572;2023-03-24T00:18:59;98554.63;;;18.31;50.31
67738;BME280;54534;43.612;1.572;2023-03-24T00:21:25;98552.78;;;18.31;50.30
67738;BME280;54534;43.612;1.572;2023-03-24T00:23:52;98555.44;;;18.31;50.57
67738;BME280;54534;43.612;1.572;2023-03-24T00:26:19;98548.44;;;18.30;50.61
67738;BME280;54534;43.612;1.572;2023-03-24T00:28:47;98542.13;;;18.31;50.29
67738;BME280;54534;43.612;1.572;2023-03-24T00:31:14;98542.13;;;18.31;50.53
67738;BME280;54534;43.612;1.572;2023-03-24T00:33:41;98555.44;;;18.31;50.59
67738;BME280;54534;43.612;1.572;2023-03-24T00:36:10;98553.78;;;18.30;50.14
67738;BME280;54534;43.612;1.572;2023-03-24T00:38:40;98540.47;;;18.30;50.59
67738;BME280;54534;43.612;1.572;2023-03-24T00:41:07;98532.47;;;18.30;50.11
67738;BME280;54534;43.612;1.572;2023-03-24T00:43:34;98533.44;;;18.29;50.59
67738;BME280;54534;43.612;1.572;2023-03-24T00:46:03;98541.44;;;18.29;50.32
67738;BME280;54534;43.612;1.572;2023-03-24T00:48:30;98553.78;;;18.30;50.51
67738;BME280;54534;43.612;1.572;2023-03-24T00:50:56;98551.09;;;18.30;50.30
67738;BME280;54534;43.612;1.572;2023-03-24T00:53:22;98559.09;;;18.30;50.23
67738;BME280;54534;43.612;1.572;2023-03-24T00:55:50;98567.06;;;18.30;50.50
67738;BME280;54534;43.612;1.572;2023-03-24T00:58:17;98573.38;;;18.29;50.43
67738;BME280;54534;43.612;1.572;2023-03-24T01:00:51;98577.72;;;18.30;50.63
67738;BME280;54534;43.612;1.572;2023-03-24T01:03:18;98585.72;;;18.30;50.40
67738;BME280;54534;43.612;1.572;2023-03-24T01:05:49;98596.47;;;18.29;50.55
67738;BME280;54534;43.612;1.572;2023-03-24T01:08:16;98595.66;;;18.28;50.69
67738;BME280;54534;43.612;1.572;2023-03-24T01:10:48;98596.47;;;18.29;50.50
67738;BME280;54534;43.612;1.572;2023-03-24T01:13:18;98592.00;;;18.29;50.54
67738;BME280;54534;43.612;1.572;2023-03-24T01:15:44;98581.50;;;18.28;50.41
67738;BME280;54534;43.612;1.572;2023-03-24T01:18:11;98582.34;;;18.28;50.32
67738;BME280;54534;43.612;1.572;2023-03-24T01:20:40;98570.84;;;18.28;50.55
67738;BME280;54534;43.612;1.572;2023-03-24T01:23:06;98573.50;;;18.28;50.70
67738;BME280;54534;43.612;1.572;2023-03-24T01:25:34;98573.50;;;18.28;50.58
67738;BME280;54534;43.612;1.572;2023-03-24T01:28:01;98575.19;;;18.29;50.13
67738;BME280;54534;43.612;1.572;2023-03-24T01:30:28;98581.50;;;18.28;50.15
67738;BME280;54534;43.612;1.572;2023-03-24T01:32:54;98591.28;;;18.27;50.09
67738;BME280;54534;43.612;1.572;2023-03-24T01:35:21;98604.59;;;18.27;50.50
67738;BME280;54534;43.612;1.572;2023-03-24T01:37:47;98595.66;;;18.28;50.33
67738;BME280;54534;43.612;1.572;2023-03-24T01:40:23;98595.66;;;18.28;50.14
67738;BME280;54534;43.612;1.572;2023-03-24T01:42:49;98599.28;;;18.27;50.35
67738;BME280;54534;43.612;1.572;2023-03-24T01:47:59;98623.38;;;18.26;50.19
67738;BME280;54534;43.612;1.572;2023-03-24T01:50:25;98625.88;;;18.27;50.04
67738;BME280;54534;43.612;1.572;2023-03-24T01:52:51;98629.50;;;18.26;50.47
67738;BME280;54534;43.612;1.572;2023-03-24T01:55:17;98631.22;;;18.27;50.47
67738;BME280;54534;43.612;1.572;2023-03-24T01:57:50;98631.22;;;18.27;50.31
67738;BME280;54534;43.612;1.572;2023-03-24T02:00:17;98645.47;;;18.26;50.39
67738;BME280;54534;43.612;1.572;2023-03-24T02:02:53;98653.47;;;18.26;50.45
67738;BME280;54534;43.612;1.572;2023-03-24T02:05:27;98650.81;;;18.26;50.53
67738;BME280;54534;43.612;1.572;2023-03-24T02:08:02;98643.66;;;18.27;50.20
67738;BME280;54534;43.612;1.572;2023-03-24T02:10:30;98642.00;;;18.26;50.40
67738;BME280;54534;43.612;1.572;2023-03-24T02:12:57;98628.69;;;18.26;50.20
67738;BME280;54534;43.612;1.572;2023-03-24T02:15:24;98628.69;;;18.26;50.18
67738;BME280;54534;43.612;1.572;2023-03-24T02:42:27;98563.41;;;18.21;50.46
67738;BME280;54534;43.612;1.572;2023-03-24T02:50:43;98567.88;;;18.21;50.36
67738;BME280;54534;43.612;1.572;2023-03-24T02:53:19;98569.72;;;18.20;50.10
67738;BME280;54534;43.612;1.572;2023-03-24T02:55:59;98567.88;;;18.21;50.35
67738;BME280;54534;43.612;1.572;2023-03-24T02:58:35;98577.72;;;18.20;50.24
67738;BME280;54534;43.612;1.572;2023-03-24T03:01:09;98572.38;;;18.20;50.37
67738;BME280;54534;43.612;1.572;2023-03-24T03:03:44;98578.53;;;18.21;50.40
67738;BME280;54534;43.612;1.572;2023-03-24T03:06:16;98592.78;;;18.20;50.15
67738;BME280;54534;43.612;1.572;2023-03-24T03:08:46;98597.16;;;18.21;50.00
67738;BME280;54534;43.612;1.572;2023-03-24T03:11:14;98591.94;;;18.19;50.11
67738;BME280;54534;43.612;1.572;2023-03-24T03:16:38;98582.16;;;18.20;50.45
67738;BME280;54534;43.612;1.572;2023-03-24T03:19:18;98588.34;;;18.20;50.57
67738;BME280;54534;43.612;1.572;2023-03-24T03:21:45;98591.84;;;18.21;50.67
67738;BME280;54534;43.612;1.572;2023-03-24T03:24:21;98591.94;;;18.19;50.41
67738;BME280;54534;43.612;1.572;2023-03-24T03:26:54;98591.25;;;18.17;50.33
67738;BME280;54534;43.612;1.572;2023-03-24T03:29:24;98599.09;;;18.19;50.46
67738;BME280;54534;43.612;1.572;2023-03-24T03:31:57;98607.91;;;18.19;50.07
67738;BME280;54534;43.612;1.572;2023-03-24T03:39:33;98607.06;;;18.19;50.34
67738;BME280;54534;43.612;1.572;2023-03-24T03:42:02;98608.88;;;18.18;50.36
67738;BME280;54534;43.612;1.572;2023-03-24T03:44:30;98612.38;;;18.19;50.32
67738;BME280;54534;43.612;1.572;2023-03-24T03:46:55;98611.53;;;18.18;50.33
67738;BME280;54534;43.612;1.572;2023-03-24T03:49:21;98617.72;;;18.19;50.48
67738;BME280;54534;43.612;1.572;2023-03-24T03:51:47;98616.03;;;18.18;50.11
67738;BME280;54534;43.612;1.572;2023-03-24T03:54:15;98612.53;;;18.17;50.26
67738;BME280;54534;43.612;1.572;2023-03-24T03:56:41;98607.22;;;18.17;50.26
67738;BME280;54534;43.612;1.572;2023-03-24T03:59:07;98603.56;;;18.18;50.53
67738;BME280;54534;43.612;1.572;2023-03-24T04:01:35;98602.75;;;18.18;50.01
67738;BME280;54534;43.612;1.572;2023-03-24T04:04:29;98595.72;;;18.17;50.17
67738;BME280;54534;43.612;1.572;2023-03-24T04:12:29;98616.16;;;18.16;50.11
67738;BME280;54534;43.612;1.572;2023-03-24T04:20:46;98638.44;;;18.15;50.16
67738;BME280;54534;43.612;1.572;2023-03-24T04:28:52;98631.28;;;18.16;50.34
67738;BME280;54534;43.612;1.572;2023-03-24T04:34:37;98641.22;;;18.14;50.13
67738;BME280;54534;43.612;1.572;2023-03-24T04:37:11;98641.22;;;18.14;50.04
67738;BME280;54534;43.612;1.572;2023-03-24T04:39:41;98647.53;;;18.12;50.08
67738;BME280;54534;43.612;1.572;2023-03-24T04:42:16;98651.00;;;18.13;50.42
67738;BME280;54534;43.612;1.572;2023-03-24T04:44:44;98657.19;;;18.14;50.30
67738;BME280;54534;43.612;1.572;2023-03-24T04:47:10;98658.03;;;18.14;50.07
67738;BME280;54534;43.612;1.572;2023-03-24T04:49:39;98657.19;;;18.14;50.00
67738;BME280;54534;43.612;1.572;2023-03-24T04:52:05;98661.66;;;18.13;49.80
67738;BME280;54534;43.612;1.572;2023-03-24T04:54:31;98659.84;;;18.14;50.34
67738;BME280;54534;43.612;1.572;2023-03-24T04:56:58;98665.16;;;18.14;50.35
67738;BME280;54534;43.612;1.572;2023-03-24T04:59:26;98661.66;;;18.13;50.15
67738;BME280;54534;43.612;1.572;2023-03-24T05:01:51;98675.81;;;18.14;50.40
67738;BME280;54534;43.612;1.572;2023-03-24T05:04:22;98662.66;;;18.12;50.38
67738;BME280;54534;43.612;1.572;2023-03-24T05:06:48;98668.81;;;18.12;49.96
67738;BME280;54534;43.612;1.572;2023-03-24T05:09:15;98677.75;;;18.11;50.36
67738;BME280;54534;43.612;1.572;2023-03-24T05:11:42;98685.75;;;18.11;50.26
67738;BME280;54534;43.612;1.572;2023-03-24T05:14:07;98679.56;;;18.11;49.76
67738;BME280;54534;43.612;1.572;2023-03-24T05:16:33;98698.91;;;18.13;50.20
67738;BME280;54534;43.612;1.572;2023-03-24T05:18:58;98703.41;;;18.12;50.13
67738;BME280;54534;43.612;1.572;2023-03-24T05:21:24;98703.53;;;18.11;50.00
67738;BME280;54534;43.612;1.572;2023-03-24T05:23:50;98712.34;;;18.11;50.28
67738;BME280;54534;43.612;1.572;2023-03-24T05:26:15;98712.34;;;18.11;50.20
67738;BME280;54534;43.612;1.572;2023-03-24T05:28:41;98706.19;;;18.11;50.41
67738;BME280;54534;43.612;1.572;2023-03-24T05:31:06;98710.66;;;18.10;49.86
67738;BME280;54534;43.612;1.572;2023-03-24T05:33:31;98712.34;;;18.11;50.14
67738;BME280;54534;43.612;1.572;2023-03-24T05:35:57;98709.69;;;18.11;50.04
67738;BME280;54534;43.612;1.572;2023-03-24T05:38:22;98721.19;;;18.12;50.22
67738;BME280;54534;43.612;1.572;2023-03-24T05:40:48;98728.31;;;18.11;50.41
67738;BME280;54534;43.612;1.572;2023-03-24T05:43:14;98732.78;;;18.11;50.34
67738;BME280;54534;43.612;1.572;2023-03-24T05:45:39;98733.78;;;18.10;49.90
67738;BME280;54534;43.612;1.572;2023-03-24T05:48:05;98741.75;;;18.10;49.94
67738;BME280;54534;43.612;1.572;2023-03-24T05:50:31;98747.09;;;18.10;50.35
67738;BME280;54534;43.612;1.572;2023-03-24T05:52:57;98751.41;;;18.11;49.83
67738;BME280;54534;43.612;1.572;2023-03-24T05:55:22;98746.22;;;18.09;50.10
67738;BME280;54534;43.612;1.572;2023-03-24T05:57:48;98744.41;;;18.10;50.15
67738;BME280;54534;43.612;1.572;2023-03-24T06:00:14;98756.88;;;18.09;49.98
67738;BME280;54534;43.612;1.572;2023-03-24T06:02:43;98766.66;;;18.09;50.26
67738;BME280;54534;43.612;1.572;2023-03-24T06:05:10;98775.50;;;18.09;50.31
67738;BME280;54534;43.612;1.572;2023-03-24T06:07:39;98772.84;;;18.09;50.26
67738;BME280;54534;43.612;1.572;2023-03-24T06:10:08;98778.16;;;18.09;49.96
67738;BME280;54534;43.612;1.572;2023-03-24T06:12:36;98773.78;;;18.08;50.15
67738;BME280;54534;43.612;1.572;2023-03-24T06:15:03;98766.66;;;18.09;49.96
67738;BME280;54534;43.612;1.572;2023-03-24T06:17:29;98767.63;;;18.08;50.00
67738;BME280;54534;43.612;1.572;2023-03-24T06:19:55;98760.50;;;18.08;49.87
67738;BME280;54534;43.612;1.572;2023-03-24T06:22:28;98771.13;;;18.08;50.07
67738;BME280;54534;43.612;1.572;2023-03-24T06:24:53;98774.78;;;18.07;49.80
67738;BME280;54534;43.612;1.572;2023-03-24T06:27:21;98790.75;;;18.07;50.24
67738;BME280;54534;43.612;1.572;2023-03-24T06:29:51;98801.41;;;18.07;49.98
67738;BME280;54534;43.612;1.572;2023-03-24T06:32:18;98802.22;;;18.08;50.02
67738;BME280;54534;43.612;1.572;2023-03-24T06:34:44;98799.56;;;18.08;49.87
67738;BME280;54534;43.612;1.572;2023-03-24T06:37:10;98794.38;;;18.06;50.18
67738;BME280;54534;43.612;1.572;2023-03-24T06:39:35;98803.22;;;18.07;49.93
67738;BME280;54534;43.612;1.572;2023-03-24T06:42:01;98808.53;;;18.07;49.87
67738;BME280;54534;43.612;1.572;2023-03-24T06:44:26;98815.66;;;18.06;50.30
67738;BME280;54534;43.612;1.572;2023-03-24T06:46:52;98836.94;;;18.06;49.85
67738;BME280;54534;43.612;1.572;2023-03-24T06:49:17;98832.59;;;18.05;49.97
67738;BME280;54534;43.612;1.572;2023-03-24T06:51:43;98841.41;;;18.06;49.93
67738;BME280;54534;43.612;1.572;2023-03-24T06:54:08;98836.94;;;18.06;49.87
67738;BME280;54534;43.612;1.572;2023-03-24T06:56:33;98838.75;;;18.06;49.83
67738;BME280;54534;43.612;1.572;2023-03-24T06:58:59;98848.53;;;18.05;50.14
67738;BME280;54534;43.612;1.572;2023-03-24T07:01:25;98846.72;;;18.06;49.84
67738;BME280;54534;43.612;1.572;2023-03-24T07:03:51;98858.22;;;18.06;50.05
67738;BME280;54534;43.612;1.572;2023-03-24T07:06:17;98858.22;;;18.06;50.28
67738;BME280;54534;43.612;1.572;2023-03-24T07:08:43;98848.53;;;18.05;50.14
67738;BME280;54534;43.612;1.572;2023-03-24T07:11:09;98849.53;;;18.04;49.84
67738;BME280;54534;43.612;1.572;2023-03-24T07:13:35;98852.19;;;18.04;50.02
67738;BME280;54534;43.612;1.572;2023-03-24T07:16:00;98863.69;;;18.05;50.25
67738;BME280;54534;43.612;1.572;2023-03-24T07:18:26;98866.34;;;18.05;49.76
67738;BME280;54534;43.612;1.572;2023-03-24T07:20:51;98866.34;;;18.05;50.10
67738;BME280;54534;43.612;1.572;2023-03-24T07:23:17;98864.66;;;18.04;49.82
67738;BME280;54534;43.612;1.572;2023-03-24T07:25:42;98873.47;;;18.04;49.73
67738;BME280;54534;43.612;1.572;2023-03-24T07:28:09;98869.13;;;18.03;50.05
67738;BME280;54534;43.612;1.572;2023-03-24T07:30:35;98873.47;;;18.04;49.97
67738;BME280;54534;43.612;1.572;2023-03-24T07:33:02;98862.84;;;18.04;49.95
67738;BME280;54534;43.612;1.572;2023-03-24T07:35:27;98870.81;;;18.04;50.26
67738;BME280;54534;43.612;1.572;2023-03-24T07:37:57;98860.19;;;18.04;49.82
67738;BME280;54534;43.612;1.572;2023-03-24T07:40:22;98872.78;;;18.02;50.06
67738;BME280;54534;43.612;1.572;2023-03-24T07:42:48;98879.75;;;18.03;50.12
67738;BME280;54534;43.612;1.572;2023-03-24T07:45:13;98883.41;;;18.02;49.92
67738;BME280;54534;43.612;1.572;2023-03-24T07:47:42;98881.56;;;18.03;50.18
67738;BME280;54534;43.612;1.572;2023-03-24T07:50:08;98886.88;;;18.03;49.84
67738;BME280;54534;43.612;1.572;2023-03-24T07:52:40;98899.38;;;18.02;49.91
67738;BME280;54534;43.612;1.572;2023-03-24T07:55:07;98899.38;;;18.02;50.08
67738;BME280;54534;43.612;1.572;2023-03-24T07:57:34;98893.19;;;18.01;49.72
67738;BME280;54534;43.612;1.572;2023-03-24T08:00:03;98906.34;;;18.03;50.28
67738;BME280;54534;43.612;1.572;2023-03-24T08:02:34;98907.34;;;18.02;50.23
67738;BME280;54534;43.612;1.572;2023-03-24T08:05:00;98920.66;;;18.02;50.28
67738;BME280;54534;43.612;1.572;2023-03-24T08:07:26;98918.09;;;18.00;50.13
67738;BME280;54534;43.612;1.572;2023-03-24T08:09:52;98920.66;;;18.02;49.85
67738;BME280;54534;43.612;1.572;2023-03-24T08:12:17;98918.94;;;18.01;50.24
67738;BME280;54534;43.612;1.572;2023-03-24T08:14:43;98913.63;;;18.01;49.76
67738;BME280;54534;43.612;1.572;2023-03-24T08:17:08;98900.31;;;18.01;50.27
67738;BME280;54534;43.612;1.572;2023-03-24T08:19:33;98911.81;;;18.01;50.09
67738;BME280;54534;43.612;1.572;2023-03-24T08:21:59;98907.47;;;18.00;49.80
67738;BME280;54534;43.612;1.572;2023-03-24T08:24:24;98913.63;;;18.01;50.01
67738;BME280;54534;43.612;1.572;2023-03-24T08:26:50;98911.94;;;18.00;50.13
67738;BME280;54534;43.612;1.572;2023-03-24T08:29:16;98915.44;;;18.00;50.17
67738;BME280;54534;43.612;1.572;2023-03-24T08:31:42;98917.25;;;18.00;49.98
67738;BME280;54534;43.612;1.572;2023-03-24T08:34:08;98926.94;;;18.01;49.91
67738;BME280;54534;43.612;1.572;2023-03-24T08:36:36;98931.41;;;18.00;50.25
67738;BME280;54534;43.612;1.572;2023-03-24T08:39:01;98934.19;;;17.99;49.75
67738;BME280;54534;43.612;1.572;2023-03-24T08:41:26;98926.22;;;17.99;49.79
67738;BME280;54534;43.612;1.572;2023-03-24T08:44:02;98927.88;;;18.00;50.16
67738;BME280;54534;43.612;1.572;2023-03-24T08:46:29;98928.88;;;17.99;49.96
67738;BME280;54534;43.612;1.572;2023-03-24T08:48:56;98933.22;;;18.00;50.07
67738;BME280;54534;43.612;1.572;2023-03-24T08:51:22;98932.34;;;17.99;50.26
67738;BME280;54534;43.612;1.572;2023-03-24T08:53:47;98928.75;;;18.00;49.95
67738;BME280;54534;43.612;1.572;2023-03-24T08:56:13;98923.56;;;17.99;49.78
67738;BME280;54534;43.612;1.572;2023-03-24T08:58:38;98927.03;;;17.99;50.20
67738;BME280;54534;43.612;1.572;2023-03-24T09:01:04;98932.34;;;17.99;50.20
67738;BME280;54534;43.612;1.572;2023-03-24T09:03:30;98948.31;;;17.99;50.00
67738;BME280;54534;43.612;1.572;2023-03-24T09:05:56;98945.66;;;17.99;49.95
67738;BME280;54534;43.612;1.572;2023-03-24T09:08:23;98952.81;;;17.99;50.17
67738;BME280;54534;43.612;1.572;2023-03-24T09:10:48;98962.63;;;17.98;50.21
67738;BME280;54534;43.612;1.572;2023-03-24T09:13:16;98982.91;;;17.99;50.24
67738;BME280;54534;43.612;1.572;2023-03-24T09:15:49;98981.09;;;18.00;50.13
67738;BME280;54534;43.612;1.572;2023-03-24T09:18:17;98991.72;;;18.00;50.28
67738;BME280;54534;43.612;1.572;2023-03-24T09:20:43;99002.38;;;18.00;49.77
67738;BME280;54534;43.612;1.572;2023-03-24T09:23:09;99011.34;;;17.99;50.14
67738;BME280;54534;43.612;1.572;2023-03-24T09:25:35;99021.97;;;17.99;50.03
67738;BME280;54534;43.612;1.572;2023-03-24T09:28:00;99029.97;;;17.99;50.21
67738;BME280;54534;43.612;1.572;2023-03-24T09:30:26;99034.28;;;18.00;50.22
67738;BME280;54534;43.612;1.572;2023-03-24T09:32:52;99038.78;;;17.99;49.85
67738;BME280;54534;43.612;1.572;2023-03-24T09:35:17;99035.28;;;17.99;50.16
67738;BME280;54534;43.612;1.572;2023-03-24T09:37:43;99038.78;;;17.99;49.81
67738;BME280;54534;43.612;1.572;2023-03-24T09:40:23;99039.63;;;18.00;49.79
67738;BME280;54534;43.612;1.572;2023-03-24T09:43:19;99036.09;;;17.99;49.93
67738;BME280;54534;43.612;1.572;2023-03-24T09:45:59;99033.44;;;17.99;49.96
67738;BME280;54534;43.612;1.572;2023-03-24T09:48:41;99037.94;;;17.99;49.96
67738;BME280;54534;43.612;1.572;2023-03-24T09:56:18;99038.78;;;17.99;49.94
67738;BME280;54534;43.612;1.572;2023-03-24T09:59:33;99037.94;;;17.99;50.36
67738;BME280;54534;43.612;1.572;2023-03-24T10:01:33;99051.34;;;17.97;49.82
67738;BME280;54534;43.612;1.572;2023-03-24T10:04:00;99054.88;;;17.98;49.73
67738;BME280;54534;43.612;1.572;2023-03-24T10:06:30;99044.22;;;17.98;50.10
67738;BME280;54534;43.612;1.572;2023-03-24T10:19:59;99062.84;;;17.98;49.81
67738;BME280;54534;43.612;1.572;2023-03-24T10:22:58;99053.06;;;17.98;49.77
67738;BME280;54534;43.612;1.572;2023-03-24T10:28:23;99056.66;;;17.97;49.68
67738;BME280;54534;43.612;1.572;2023-03-24T10:30:53;99054.00;;;17.97;49.96
67738;BME280;54534;43.612;1.572;2023-03-24T10:33:20;99052.22;;;17.98;50.12
67738;BME280;54534;43.612;1.572;2023-03-24T10:36:04;99054.88;;;17.98;49.95
67738;BME280;54534;43.612;1.572;2023-03-24T10:38:30;99051.34;;;17.97;50.18
67738;BME280;54534;43.612;1.572;2023-03-24T10:40:56;99054.88;;;17.98;50.23
67738;BME280;54534;43.612;1.572;2023-03-24T10:43:22;99057.53;;;17.98;50.08
67738;BME280;54534;43.612;1.572;2023-03-24T10:45:54;99059.22;;;17.99;49.88
67738;BME280;54534;43.612;1.572;2023-03-24T10:50:58;99068.16;;;17.98;49.95
67738;BME280;54534;43.612;1.572;2023-03-24T10:53:24;99084.97;;;17.98;50.11
67738;BME280;54534;43.612;1.572;2023-03-24T10:55:50;99081.34;;;17.99;50.07
67738;BME280;54534;43.612;1.572;2023-03-24T10:58:19;99064.56;;;17.99;49.75
67738;BME280;54534;43.612;1.572;2023-03-24T11:00:49;99060.19;;;17.98;50.09
67738;BME280;54534;43.612;1.572;2023-03-24T11:03:27;99076.88;;;18.00;49.73
67738;BME280;54534;43.612;1.572;2023-03-24T11:06:01;99070.69;;;17.99;49.65
67738;BME280;54534;43.612;1.572;2023-03-24T11:08:36;99071.53;;;18.00;49.83
67738;BME280;54534;43.612;1.572;2023-03-24T11:11:37;99071.53;;;18.00;49.83
67738;BME280;54534;43.612;1.572;2023-03-24T11:14:02;99070.69;;;17.99;49.63
67738;BME280;54534;43.612;1.572;2023-03-24T11:16:42;99087.63;;;17.98;49.85
67738;BME280;54534;43.612;1.572;2023-03-24T11:19:22;99079.53;;;18.00;49.67
67738;BME280;54534;43.612;1.572;2023-03-24T11:21:48;99079.66;;;17.98;49.63
67738;BME280;54534;43.612;1.572;2023-03-24T11:24:17;99080.50;;;17.99;49.66
67738;BME280;54534;43.612;1.572;2023-03-24T11:26:53;99077.84;;;17.99;49.62
67738;BME280;54534;43.612;1.572;2023-03-24T11:29:22;99091.16;;;17.99;50.02
67738;BME280;54534;43.612;1.572;2023-03-24T11:31:54;99095.47;;;18.00;50.03
67738;BME280;54534;43.612;1.572;2023-03-24T11:34:32;99098.16;;;18.00;49.60
67738;BME280;54534;43.612;1.572;2023-03-24T11:37:04;99098.16;;;18.00;50.06
67738;BME280;54534;43.612;1.572;2023-03-24T11:39:32;99107.94;;;17.99;50.29
67738;BME280;54534;43.612;1.572;2023-03-24T11:44:49;99115.81;;;18.01;49.90
67738;BME280;54534;43.612;1.572;2023-03-24T11:49:51;99111.34;;;18.01;49.81
67738;BME280;54534;43.612;1.572;2023-03-24T11:52:28;99119.44;;;18.00;49.91
67738;BME280;54534;43.612;1.572;2023-03-24T11:54:55;99117.63;;;18.00;49.83
67738;BME280;54534;43.612;1.572;2023-03-24T11:57:40;99114.09;;;18.00;50.05
67738;BME280;54534;43.612;1.572;2023-03-24T12:05:34;99120.28;;;18.00;50.12
67738;BME280;54534;43.612;1.572;2023-03-24T12:11:46;99131.88;;;17.99;50.00
67738;BME280;54534;43.612;1.572;2023-03-24T12:13:56;99124.75;;;18.00;50.10
67738;BME280;54534;43.612;1.572;2023-03-24T12:16:51;99131.78;;;18.01;49.77
67738;BME280;54534;43.612;1.572;2023-03-24T12:33:12;99157.53;;;18.00;49.88
67738;BME280;54534;43.612;1.572;2023-03-24T12:39:08;99177.94;;;18.00;49.99
67738;BME280;54534;43.612;1.572;2023-03-24T12:55:16;99130.06;;;18.00;50.26
67738;BME280;54534;43.612;1.572;2023-03-24T12:57:53;99141.56;;;18.00;50.14
67738;BME280;54534;43.612;1.572;2023-03-24T13:00:27;99172.53;;;18.01;50.11
67738;BME280;54534;43.612;1.572;2023-03-24T13:02:57;99185.84;;;18.01;49.99
67738;BME280;54534;43.612;1.572;2023-03-24T13:05:34;99185.69;;;18.03;50.07
67738;BME280;54534;43.612;1.572;2023-03-24T13:08:05;99172.53;;;18.01;50.24
67738;BME280;54534;43.612;1.572;2023-03-24T13:10:36;99176.03;;;18.02;50.04
67738;BME280;54534;43.612;1.572;2023-03-24T13:13:09;99186.69;;;18.02;50.16
67738;BME280;54534;43.612;1.572;2023-03-24T13:23:30;99188.34;;;18.03;49.83
67738;BME280;54534;43.612;1.572;2023-03-24T13:31:36;99173.38;;;18.02;49.97
67738;BME280;54534;43.612;1.572;2023-03-24T13:34:13;99179.53;;;18.03;50.30
67738;BME280;54534;43.612;1.572;2023-03-24T13:36:49;99177.00;;;18.01;50.32
67738;BME280;54534;43.612;1.572;2023-03-24T13:39:19;99177.72;;;18.03;50.41
67738;BME280;54534;43.612;1.572;2023-03-24T13:41:49;99177.72;;;18.03;50.05
67738;BME280;54534;43.612;1.572;2023-03-24T13:44:22;99167.06;;;18.03;50.28
67738;BME280;54534;43.612;1.572;2023-03-24T13:47:24;99177.72;;;18.03;50.19
67738;BME280;54534;43.612;1.572;2023-03-24T13:49:56;99176.03;;;18.02;50.05
67738;BME280;54534;43.612;1.572;2023-03-24T13:52:34;99184.03;;;18.02;50.19
67738;BME280;54534;43.612;1.572;2023-03-24T13:55:07;99185.69;;;18.03;50.18
67738;BME280;54534;43.612;1.572;2023-03-24T13:57:39;99197.19;;;18.04;50.06
67738;BME280;54534;43.612;1.572;2023-03-24T14:03:10;99210.50;;;18.04;50.15
67738;BME280;54534;43.612;1.572;2023-03-24T14:10:48;99227.31;;;18.04;50.21
67738;BME280;54534;43.612;1.572;2023-03-24T14:15:58;99238.06;;;18.03;50.04
67738;BME280;54534;43.612;1.572;2023-03-24T14:23:24;99245.09;;;18.04;49.97
67738;BME280;54534;43.612;1.572;2023-03-24T14:25:54;99250.41;;;18.04;49.89
67738;BME280;54534;43.612;1.572;2023-03-24T14:28:31;99247.75;;;18.04;50.15
67738;BME280;54534;43.612;1.572;2023-03-24T14:33:27;99258.38;;;18.04;49.98
67738;BME280;54534;43.612;1.572;2023-03-24T14:36:01;99248.59;;;18.04;50.00
67738;BME280;54534;43.612;1.572;2023-03-24T14:38:34;99259.25;;;18.04;50.22
67738;BME280;54534;43.612;1.572;2023-03-24T14:41:05;99252.22;;;18.03;50.29
67738;BME280;54534;43.612;1.572;2023-03-24T14:46:05;99258.38;;;18.04;50.27
67738;BME280;54534;43.612;1.572;2023-03-24T14:48:57;99258.25;;;18.05;50.32
67738;BME280;54534;43.612;1.572;2023-03-24T14:54:34;99269.88;;;18.04;49.95
67738;BME280;54534;43.612;1.572;2023-03-24T14:57:01;99273.50;;;18.03;50.36
67738;BME280;54534;43.612;1.572;2023-03-24T14:59:42;99274.34;;;18.04;50.06
67738;BME280;54534;43.612;1.572;2023-03-24T15:07:43;99276.16;;;18.03;50.00
67738;BME280;54534;43.612;1.572;2023-03-24T15:10:17;99275.31;;;18.03;50.05
67738;BME280;54534;43.612;1.572;2023-03-24T15:12:47;99283.28;;;18.03;49.85
67738;BME280;54534;43.612;1.572;2023-03-24T15:15:23;99285.00;;;18.04;49.68
67738;BME280;54534;43.612;1.572;2023-03-24T15:17:50;99292.13;;;18.03;49.75
67738;BME280;54534;43.612;1.572;2023-03-24T15:20:23;99296.50;;;18.04;50.06
67738;BME280;54534;43.612;1.572;2023-03-24T15:22:50;99296.50;;;18.04;50.33
67738;BME280;54534;43.612;1.572;2023-03-24T15:25:19;99301.91;;;18.03;49.84
67738;BME280;54534;43.612;1.572;2023-03-24T15:27:49;99305.56;;;18.01;49.94
67738;BME280;54534;43.612;1.572;2023-03-24T15:30:16;99306.28;;;18.04;49.90
67738;BME280;54534;43.612;1.572;2023-03-24T15:32:41;99309.06;;;18.02;49.91
67738;BME280;54534;43.612;1.572;2023-03-24T15:35:13;99316.06;;;18.03;50.12
67738;BME280;54534;43.612;1.572;2023-03-24T15:37:41;99313.41;;;18.03;49.87
67738;BME280;54534;43.612;1.572;2023-03-24T15:43:00;99314.25;;;18.04;49.88
67738;BME280;54534;43.612;1.572;2023-03-24T15:45:34;99322.25;;;18.04;49.77
67738;BME280;54534;43.612;1.572;2023-03-24T15:48:07;99322.25;;;18.04;49.88
67738;BME280;54534;43.612;1.572;2023-03-24T15:50:38;99323.19;;;18.03;50.07
67738;BME280;54534;43.612;1.572;2023-03-24T15:55:43;99330.34;;;18.02;50.00
67738;BME280;54534;43.612;1.572;2023-03-24T15:58:25;99337.34;;;18.03;49.80
67738;BME280;54534;43.612;1.572;2023-03-24T16:00:54;99334.69;;;18.03;50.20
67738;BME280;54534;43.612;1.572;2023-03-24T16:03:21;99330.34;;;18.02;49.69
67738;BME280;54534;43.612;1.572;2023-03-24T16:05:52;99336.50;;;18.03;50.00
67738;BME280;54534;43.612;1.572;2023-03-24T16:08:31;99332.03;;;18.03;49.61